createdAt,value
2018-09-06T00:01:44.835Z,19.60
2018-09-06T00:04:16.245Z,20.83
2018-09-06T00:06:46.875Z,19.43
2018-09-06T00:09:17.193Z,20.23
2018-09-06T00:11:47.301Z,19.67
2018-09-06T00:14:17.658Z,19.70
2018-09-06T00:16:47.933Z,19.77
2018-09-06T00:19:18.509Z,20.40
2018-09-06T00:21:48.647Z,19.73
2018-09-06T00:24:19.416Z,19.60
2018-09-06T00:26:49.770Z,20.40
2018-09-06T00:29:19.989Z,20.80
2018-09-06T00:31:50.184Z,20.27
2018-09-06T00:34:20.556Z,20.07
2018-09-06T00:36:50.659Z,19.93
2018-09-06T00:39:21.142Z,19.87
2018-09-06T00:41:52.042Z,20.77
2018-09-06T00:44:22.618Z,20.70
2018-09-06T00:46:52.966Z,20.87
2018-09-06T00:49:23.761Z,21.10
2018-09-06T00:51:55.249Z,20.40
2018-09-06T00:54:25.519Z,19.53
2018-09-06T00:56:56.176Z,19.93
2018-09-06T00:59:26.813Z,20.77
2018-09-06T01:01:57.366Z,21.50
2018-09-06T01:04:28.210Z,21.00
2018-09-06T01:06:58.217Z,21.27
2018-09-06T01:09:28.693Z,20.93
2018-09-06T01:11:58.682Z,20.30
2018-09-06T01:14:28.825Z,21.33
2018-09-06T01:16:59.327Z,20.57
2018-09-06T01:19:29.925Z,21.23
2018-09-06T01:22:00.099Z,21.10
2018-09-06T01:24:30.225Z,21.17
2018-09-06T01:27:01.160Z,21.60
2018-09-06T01:29:32.065Z,20.83
2018-09-06T01:32:02.723Z,20.10
2018-09-06T01:34:32.741Z,20.77
2018-09-06T01:37:06.938Z,20.50
2018-09-06T01:39:38.284Z,20.67
2018-09-06T01:42:09.128Z,21.33
2018-09-06T01:44:39.305Z,21.13
2018-09-06T01:47:09.454Z,19.83
2018-09-06T01:49:39.549Z,21.63
2018-09-06T01:52:09.703Z,21.07
2018-09-06T01:54:40.564Z,21.07
2018-09-06T01:57:10.780Z,20.93
2018-09-06T01:59:41.590Z,20.97
2018-09-06T02:02:12.264Z,21.00
2018-09-06T02:04:43.084Z,20.73
2018-09-06T02:07:13.474Z,20.27
2018-09-06T02:09:43.542Z,20.03
2018-09-06T02:12:13.810Z,20.40
2018-09-06T02:14:44.640Z,20.67
2018-09-06T02:17:15.435Z,20.77
2018-09-06T02:19:45.771Z,20.40
2018-09-06T02:22:16.428Z,21.47
2018-09-06T02:24:47.380Z,20.93
2018-09-06T02:27:17.573Z,21.43
2018-09-06T02:29:48.094Z,21.20
2018-09-06T02:32:18.654Z,21.17
2018-09-06T02:34:48.710Z,21.53
2018-09-06T02:37:18.938Z,21.43
2018-09-06T02:39:49.588Z,21.03
2018-09-06T02:42:19.819Z,23.20
2018-09-06T02:44:50.064Z,21.20
2018-09-06T02:47:20.232Z,22.63
2018-09-06T02:49:55.510Z,21.80
2018-09-06T02:52:26.295Z,22.20
2018-09-06T02:54:56.423Z,22.33
2018-09-06T02:57:26.623Z,21.37
2018-09-06T02:59:57.303Z,22.23
2018-09-06T03:02:27.604Z,22.90
2018-09-06T03:04:57.721Z,21.60
2018-09-06T03:07:27.822Z,22.37
2018-09-06T03:09:58.040Z,22.43
2018-09-06T03:12:28.459Z,22.00
2018-09-06T03:14:59.194Z,22.47
2018-09-06T03:17:29.961Z,21.27
2018-09-06T03:20:00.404Z,21.30
2018-09-06T03:22:30.954Z,22.03
2018-09-06T03:25:01.729Z,21.67
2018-09-06T03:27:32.455Z,21.73
2018-09-06T03:30:02.977Z,21.30
2018-09-06T03:32:33.592Z,21.53
2018-09-06T03:35:04.194Z,22.23
2018-09-06T03:37:34.341Z,21.10
2018-09-06T03:40:04.497Z,20.47
2018-09-06T03:42:34.915Z,20.63
2018-09-06T03:45:05.105Z,20.77
2018-09-06T03:47:35.252Z,20.87
2018-09-06T03:50:06.510Z,20.10
2018-09-06T03:52:36.657Z,20.63
2018-09-06T03:55:07.379Z,21.60
2018-09-06T03:57:38.697Z,20.57
2018-09-06T04:00:09.018Z,20.80
2018-09-06T04:02:39.830Z,23.07
2018-09-06T04:05:10.043Z,21.43
2018-09-06T04:07:40.127Z,20.70
2018-09-06T04:10:10.603Z,20.83
2018-09-06T04:12:41.686Z,21.27
2018-09-06T04:15:11.841Z,21.77
2018-09-06T04:17:42.029Z,20.30
2018-09-06T04:20:12.406Z,20.50
2018-09-06T04:22:51.712Z,20.23
2018-09-06T04:25:22.241Z,19.40
2018-09-06T04:27:52.363Z,19.47
2018-09-06T04:30:23.044Z,19.13
2018-09-06T04:32:53.064Z,19.90
2018-09-06T04:35:23.262Z,19.40
2018-09-06T04:37:53.363Z,19.80
2018-09-06T04:40:23.421Z,19.20
2018-09-06T04:42:53.830Z,19.67
2018-09-06T04:45:23.985Z,19.97
2018-09-06T04:47:54.939Z,20.23
2018-09-06T04:50:24.981Z,19.53
2018-09-06T04:52:55.496Z,20.33
2018-09-06T04:55:25.624Z,19.30
2018-09-06T04:57:55.707Z,19.20
2018-09-06T05:00:25.845Z,20.77
2018-09-06T05:02:55.987Z,19.63
2018-09-06T05:05:25.937Z,19.40
2018-09-06T05:07:56.566Z,19.93
2018-09-06T05:10:26.736Z,19.80
2018-09-06T05:12:57.990Z,19.57
2018-09-06T05:15:28.204Z,20.47
2018-09-06T05:17:58.387Z,20.30
2018-09-06T05:20:28.677Z,20.37
2018-09-06T05:22:58.880Z,19.67
2018-09-06T05:25:29.294Z,20.17
2018-09-06T05:27:59.394Z,21.07
2018-09-06T05:30:29.765Z,20.33
2018-09-06T05:32:59.788Z,20.97
2018-09-06T05:35:29.904Z,20.77
2018-09-06T05:37:59.983Z,20.50
2018-09-06T05:40:30.487Z,20.80
2018-09-06T05:43:01.186Z,20.23
2018-09-06T05:45:31.314Z,19.60
2018-09-06T05:48:01.529Z,19.17
2018-09-06T05:50:32.176Z,18.37
2018-09-06T05:53:03.532Z,18.40
2018-09-06T05:55:33.730Z,18.43
2018-09-06T05:58:03.986Z,18.33
2018-09-06T06:00:39.072Z,18.60
2018-09-06T06:03:09.325Z,18.67
2018-09-06T06:05:39.490Z,20.43
2018-09-06T06:08:20.828Z,19.37
2018-09-06T06:10:51.276Z,20.40
2018-09-06T06:13:21.459Z,19.30
2018-09-06T06:15:51.542Z,20.03
2018-09-06T06:18:21.710Z,20.57
2018-09-06T06:20:51.889Z,19.43
2018-09-06T06:23:22.464Z,21.20
2018-09-06T06:25:52.639Z,19.70
2018-09-06T06:28:23.248Z,20.60
2018-09-06T06:30:53.421Z,19.97
2018-09-06T06:33:23.553Z,20.27
2018-09-06T06:35:54.224Z,19.80
2018-09-06T06:38:24.982Z,19.87
2018-09-06T06:40:55.565Z,20.27
2018-09-06T06:43:26.036Z,19.60
2018-09-06T06:45:57.208Z,21.00
2018-09-06T06:48:27.674Z,20.33
2018-09-06T06:50:57.739Z,20.73
2018-09-06T06:53:27.894Z,20.70
2018-09-06T06:55:58.050Z,20.27
2018-09-06T06:58:28.212Z,21.80
2018-09-06T07:00:58.915Z,20.40
2018-09-06T07:03:28.968Z,20.37
2018-09-06T07:05:59.138Z,20.80
2018-09-06T07:08:29.228Z,20.77
2018-09-06T07:10:59.344Z,19.30
2018-09-06T07:13:29.491Z,20.23
2018-09-06T07:15:59.981Z,21.17
2018-09-06T07:18:30.219Z,21.03
2018-09-06T07:21:00.509Z,21.37
2018-09-06T07:23:30.674Z,20.90
2018-09-06T07:26:01.394Z,21.77
2018-09-06T07:28:31.508Z,20.80
2018-09-06T07:31:01.615Z,21.00
2018-09-06T07:33:32.076Z,20.90
2018-09-06T07:36:02.267Z,20.93
2018-09-06T07:38:32.864Z,20.90
2018-09-06T07:41:03.481Z,19.87
2018-09-06T07:43:34.044Z,20.17
2018-09-06T07:46:04.630Z,20.10
2018-09-06T07:48:34.699Z,20.87
2018-09-06T07:51:04.783Z,20.90
2018-09-06T07:53:35.429Z,19.83
2018-09-06T07:56:06.475Z,20.60
2018-09-06T07:58:36.735Z,19.60
2018-09-06T08:01:07.848Z,18.93
2018-09-06T08:03:37.941Z,18.83
2018-09-06T08:06:08.458Z,19.43
2018-09-06T08:08:38.601Z,19.07
2018-09-06T08:11:08.563Z,19.87
2018-09-06T08:13:38.777Z,18.47
2018-09-06T08:16:08.911Z,17.87
2018-09-06T08:18:38.956Z,18.30
2018-09-06T08:21:09.151Z,18.80
2018-09-06T08:23:39.801Z,18.70
2018-09-06T08:26:10.903Z,19.43
2018-09-06T08:28:40.997Z,19.40
2018-09-06T08:31:11.336Z,18.40
2018-09-06T08:33:41.771Z,18.27
2018-09-06T08:36:12.245Z,18.67
2018-09-06T08:38:42.328Z,16.83
2018-09-06T08:41:12.482Z,18.00
2018-09-06T08:43:42.592Z,16.40
2018-09-06T08:46:12.762Z,17.03
2018-09-06T08:48:43.452Z,18.20
2018-09-06T08:51:13.531Z,16.67
2018-09-06T08:53:43.613Z,18.27
2018-09-06T08:56:13.676Z,17.20
2018-09-06T08:58:43.747Z,18.43
2018-09-06T09:01:18.702Z,16.77
2018-09-06T09:03:48.765Z,17.30
2018-09-06T09:06:19.365Z,17.30
2018-09-06T09:08:49.520Z,17.73
2018-09-06T09:11:20.317Z,17.50
2018-09-06T09:13:50.551Z,17.20
2018-09-06T09:16:20.748Z,17.70
2018-09-06T09:18:51.007Z,15.67
2018-09-06T09:21:22.055Z,15.47
2018-09-06T09:23:52.384Z,16.60
2018-09-06T09:26:22.545Z,15.53
2018-09-06T09:28:52.659Z,16.97
2018-09-06T09:31:23.374Z,16.63
2018-09-06T09:33:53.629Z,15.17
2018-09-06T09:36:24.175Z,15.17
2018-09-06T09:38:54.351Z,15.57
2018-09-06T09:41:25.027Z,13.85
2018-09-06T09:43:55.544Z,15.03
2018-09-06T09:51:25.098Z,14.87
2018-09-06T09:53:55.998Z,15.27
2018-09-06T09:56:25.982Z,14.00
2018-09-06T09:58:56.090Z,15.15
2018-09-06T10:01:30.208Z,13.25
2018-09-06T10:04:05.359Z,12.75
2018-09-06T10:06:40.632Z,13.78
2018-09-06T10:09:27.821Z,13.03
2018-09-06T10:11:57.897Z,13.88
2018-09-06T10:14:28.020Z,13.98
2018-09-06T10:16:58.243Z,13.55
2018-09-06T10:19:28.796Z,15.30
2018-09-06T10:21:58.832Z,14.15
2018-09-06T10:24:28.959Z,14.33
2018-09-06T10:26:59.252Z,15.78
2018-09-06T10:29:29.288Z,13.72
2018-09-06T10:31:59.418Z,13.98
2018-09-06T10:34:29.995Z,13.30
2018-09-06T10:36:59.954Z,14.47
2018-09-06T10:39:30.055Z,13.83
2018-09-06T10:42:00.211Z,14.13
2018-09-06T10:44:30.427Z,14.40
2018-09-06T10:47:01.069Z,13.30
2018-09-06T10:49:31.267Z,12.47
2018-09-06T10:52:01.969Z,12.70
2018-09-06T10:54:32.513Z,12.35
2018-09-06T10:57:03.425Z,12.37
2018-09-06T10:59:34.051Z,12.13
2018-09-06T11:02:04.172Z,13.65
2018-09-06T11:04:34.376Z,12.47
2018-09-06T11:07:04.480Z,10.90
2018-09-06T11:09:35.025Z,10.65
2018-09-06T11:12:05.054Z,10.40
2018-09-06T11:14:35.134Z,10.28
2018-09-06T11:17:05.203Z,10.38
2018-09-06T11:19:35.829Z,9.40
2018-09-06T11:22:06.804Z,9.30
2018-09-06T11:24:36.826Z,10.08
2018-09-06T11:27:06.969Z,9.55
2018-09-06T11:29:36.987Z,9.60
2018-09-06T11:32:07.464Z,10.28
2018-09-06T11:34:37.537Z,10.23
2018-09-06T11:37:07.629Z,10.53
2018-09-06T11:39:37.758Z,9.75
2018-09-06T11:42:07.903Z,9.70
2018-09-06T11:44:38.927Z,9.30
2018-09-06T11:47:09.344Z,9.50
2018-09-06T11:49:39.896Z,9.28
2018-09-06T11:52:10.749Z,9.48
2018-09-06T11:54:40.849Z,8.50
2018-09-06T11:57:11.194Z,8.68
2018-09-06T11:59:41.268Z,8.83
2018-09-06T12:02:11.804Z,8.48
2018-09-06T12:04:41.715Z,7.95
2018-09-06T12:07:11.765Z,7.70
2018-09-06T12:09:41.857Z,8.65
2018-09-06T12:12:13.285Z,8.93
2018-09-06T12:14:44.379Z,8.35
2018-09-06T12:17:14.730Z,8.53
2018-09-06T12:19:45.573Z,8.40
2018-09-06T12:22:15.778Z,8.53
2018-09-06T12:24:46.261Z,8.58
2018-09-06T12:27:17.372Z,8.88
2018-09-06T12:29:47.599Z,9.00
2018-09-06T12:32:17.763Z,8.90
2018-09-06T12:34:47.916Z,7.80
2018-09-06T12:37:18.145Z,8.45
2018-09-06T12:39:49.058Z,8.38
2018-09-06T12:42:20.237Z,8.88
2018-09-06T12:44:50.209Z,8.05
2018-09-06T12:47:20.461Z,8.43
2018-09-06T12:49:51.382Z,8.28
2018-09-06T12:52:21.418Z,8.80
2018-09-06T12:54:52.171Z,8.35
2018-09-06T12:57:22.747Z,8.48
2018-09-06T12:59:53.497Z,7.55
2018-09-06T13:02:23.351Z,8.15
2018-09-06T13:04:54.263Z,8.10
2018-09-06T13:07:24.347Z,7.87
2018-09-06T13:09:54.819Z,8.08
2018-09-06T13:12:25.035Z,7.40
2018-09-06T13:14:55.589Z,7.92
2018-09-06T13:17:25.687Z,7.75
2018-09-06T13:19:55.743Z,8.03
2018-09-06T13:22:26.858Z,8.28
2018-09-06T13:24:57.253Z,7.75
2018-09-06T13:27:27.328Z,7.65
2018-09-06T13:29:57.438Z,8.23
2018-09-06T13:32:27.479Z,8.20
2018-09-06T13:34:57.773Z,8.35
2018-09-06T13:37:27.875Z,8.60
2018-09-06T13:39:58.436Z,8.98
2018-09-06T13:42:29.147Z,8.18
2018-09-06T13:44:59.470Z,8.90
2018-09-06T13:47:29.591Z,8.35
2018-09-06T13:49:59.590Z,7.80
2018-09-06T13:52:29.998Z,8.98
2018-09-06T13:55:00.029Z,8.30
2018-09-06T13:57:31.555Z,9.43
2018-09-06T14:00:01.680Z,7.87
2018-09-06T14:02:32.158Z,8.93
2018-09-06T14:05:02.256Z,8.30
2018-09-06T14:07:32.255Z,8.18
2018-09-06T14:10:02.350Z,8.40
2018-09-06T14:12:33.396Z,8.00
2018-09-06T14:15:03.580Z,8.30
2018-09-06T14:17:33.610Z,7.95
2018-09-06T14:20:03.752Z,7.85
2018-09-06T14:22:34.282Z,8.10
2018-09-06T14:25:04.312Z,8.00
2018-09-06T14:27:34.472Z,8.45
2018-09-06T14:30:04.542Z,8.35
2018-09-06T14:32:35.080Z,7.83
2018-09-06T14:35:05.124Z,8.63
2018-09-06T14:37:35.215Z,8.15
2018-09-06T14:40:05.278Z,7.80
2018-09-06T14:42:35.296Z,7.78
2018-09-06T14:45:06.048Z,8.00
2018-09-06T14:47:36.097Z,8.20
2018-09-06T14:50:06.911Z,8.63
2018-09-06T14:52:37.169Z,8.23
2018-09-06T14:55:08.394Z,7.75
2018-09-06T14:57:39.974Z,8.63
2018-09-06T15:00:10.406Z,8.38
2018-09-06T15:02:40.374Z,8.30
2018-09-06T15:05:10.311Z,8.38
2018-09-06T15:07:40.463Z,8.23
2018-09-06T15:10:10.636Z,8.33
2018-09-06T15:12:40.709Z,8.60
2018-09-06T15:15:10.667Z,8.18
2018-09-06T15:17:41.293Z,8.63
2018-09-06T15:20:11.710Z,7.78
2018-09-06T15:22:42.217Z,9.30
2018-09-06T15:25:12.237Z,8.98
2018-09-06T15:27:42.870Z,8.10
2018-09-06T15:30:13.193Z,8.23
2018-09-06T15:32:44.064Z,8.23
2018-09-06T15:35:14.211Z,8.20
2018-09-06T15:37:44.634Z,8.33
2018-09-06T15:40:15.045Z,8.20
2018-09-06T15:42:45.367Z,8.60
2018-09-06T15:45:16.414Z,8.20
2018-09-06T15:47:47.863Z,8.55
2018-09-06T15:50:18.389Z,8.63
2018-09-06T15:52:49.420Z,8.05
2018-09-06T15:55:19.504Z,8.10
2018-09-06T15:57:50.074Z,8.90
2018-09-06T16:00:20.056Z,8.15
2018-09-06T16:02:50.075Z,8.28
2018-09-06T16:05:20.665Z,7.80
2018-09-06T16:07:51.151Z,8.53
2018-09-06T16:10:21.093Z,8.38
2018-09-06T16:12:51.134Z,8.00
2018-09-06T16:15:21.136Z,7.45
2018-09-06T16:17:51.119Z,8.05
2018-09-06T16:20:21.181Z,7.80
2018-09-06T16:22:51.275Z,8.23
2018-09-06T16:25:21.341Z,7.62
2018-09-06T16:27:51.386Z,7.47
2018-09-06T16:30:21.857Z,8.18
2018-09-06T16:32:52.665Z,8.03
2018-09-06T16:35:23.737Z,8.43
2018-09-06T16:37:54.063Z,8.18
2018-09-06T16:40:24.304Z,9.18
2018-09-06T16:42:54.680Z,8.10
2018-09-06T16:45:25.109Z,7.87
2018-09-06T16:47:56.092Z,7.62
2018-09-06T16:50:26.760Z,8.10
2018-09-06T16:52:57.097Z,7.75
2018-09-06T16:55:27.530Z,8.15
2018-09-06T16:57:57.583Z,8.03
2018-09-06T17:00:28.441Z,8.40
2018-09-06T17:02:58.401Z,8.67
2018-09-06T17:05:28.835Z,8.47
2018-09-06T17:07:59.337Z,8.53
2018-09-06T17:10:29.744Z,8.30
2018-09-06T17:13:00.415Z,7.80
2018-09-06T17:15:30.531Z,8.00
2018-09-06T17:18:01.618Z,8.30
2018-09-06T17:20:32.208Z,8.47
2018-09-06T17:23:02.311Z,8.23
2018-09-06T17:25:32.310Z,7.90
2018-09-06T17:28:02.806Z,8.30
2018-09-06T17:30:33.351Z,8.50
2018-09-06T17:33:03.814Z,8.33
2018-09-06T17:35:33.885Z,8.10
2018-09-06T17:38:03.960Z,8.73
2018-09-06T17:40:35.023Z,8.37
2018-09-06T17:43:05.119Z,9.40
2018-09-06T17:45:35.734Z,8.73
2018-09-06T17:48:05.793Z,9.00
2018-09-06T17:50:36.970Z,8.47
2018-09-06T17:53:07.556Z,7.97
2018-09-06T17:55:38.326Z,8.23
2018-09-06T17:58:08.387Z,9.30
2018-09-06T18:00:45.582Z,9.80
2018-09-06T18:03:16.631Z,9.73
2018-09-06T18:05:46.671Z,9.87
2018-09-06T18:08:16.751Z,9.93
2018-09-06T18:10:47.555Z,10.30
2018-09-06T18:13:18.322Z,10.10
2018-09-06T18:15:49.371Z,9.57
2018-09-06T18:18:19.392Z,9.23
2018-09-06T18:20:50.116Z,9.80
2018-09-06T18:23:20.181Z,9.47
2018-09-06T18:25:50.376Z,10.07
2018-09-06T18:28:20.915Z,9.53
2018-09-06T18:30:50.960Z,10.13
2018-09-06T18:33:21.205Z,10.20
2018-09-06T18:35:51.932Z,10.10
2018-09-06T18:38:22.820Z,9.80
2018-09-06T18:40:53.432Z,10.33
2018-09-06T18:43:23.852Z,10.03
2018-09-06T18:45:54.650Z,10.30
2018-09-06T18:48:24.696Z,10.20
2018-09-06T18:50:54.834Z,9.57
2018-09-06T18:53:25.413Z,9.70
2018-09-06T18:55:55.991Z,10.10
2018-09-06T18:58:26.258Z,9.87
2018-09-06T19:00:56.735Z,9.30
2018-09-06T19:03:27.186Z,10.20
2018-09-06T19:05:57.247Z,9.97
2018-09-06T19:08:27.814Z,9.97
2018-09-06T19:10:58.279Z,9.93
2018-09-06T19:13:29.318Z,10.27
2018-09-06T19:16:00.013Z,10.00
2018-09-06T19:18:31.005Z,9.83
2018-09-06T19:21:01.585Z,9.60
2018-09-06T19:23:32.157Z,9.63
2018-09-06T19:26:02.141Z,10.30
2018-09-06T19:28:32.968Z,10.60
2018-09-06T19:31:03.388Z,10.00
2018-09-06T19:33:34.017Z,10.13
2018-09-06T19:36:04.041Z,10.23
2018-09-06T19:38:34.015Z,11.97
2018-09-06T19:41:04.197Z,10.97
2018-09-06T19:43:34.601Z,12.00
2018-09-06T19:46:04.977Z,12.07
2018-09-06T19:48:35.659Z,11.00
2018-09-06T19:51:06.746Z,12.20
2018-09-06T19:53:37.642Z,13.30
2018-09-06T19:56:07.709Z,13.17
2018-09-06T19:58:37.636Z,13.50
2018-09-06T20:01:07.714Z,12.87
2018-09-06T20:03:38.086Z,13.30
2018-09-06T20:06:08.757Z,12.57
2018-09-06T20:08:39.494Z,13.67
2018-09-06T20:11:10.035Z,13.30
2018-09-06T20:13:40.103Z,13.30
2018-09-06T20:16:10.197Z,13.13
2018-09-06T20:18:40.851Z,12.77
2018-09-06T20:21:10.744Z,12.87
2018-09-06T20:23:41.324Z,12.90
2018-09-06T20:26:11.397Z,12.93
2018-09-06T20:28:41.427Z,13.63
2018-09-06T20:31:12.401Z,14.17
2018-09-06T20:33:42.509Z,13.90
2018-09-06T20:36:13.687Z,13.60
2018-09-06T20:38:43.986Z,13.53
2018-09-06T20:41:14.036Z,13.30
2018-09-06T20:43:44.161Z,12.27
2018-09-06T20:46:14.326Z,12.13
2018-09-06T20:48:45.407Z,11.77
2018-09-06T20:51:15.572Z,11.90
2018-09-06T20:53:45.701Z,11.10
2018-09-06T20:56:15.752Z,10.47
2018-09-06T20:58:46.620Z,10.00
2018-09-06T21:01:17.581Z,10.10
2018-09-06T21:03:47.732Z,9.60
2018-09-06T21:06:17.885Z,10.10
2018-09-06T21:08:48.089Z,9.03
2018-09-06T21:11:18.732Z,11.23
2018-09-06T21:13:49.569Z,13.77
2018-09-06T21:16:19.733Z,13.17
2018-09-06T21:18:49.805Z,14.20
2018-09-06T21:21:20.349Z,14.73
2018-09-06T21:23:50.941Z,15.53
2018-09-06T21:26:22.130Z,14.80
2018-09-06T21:28:52.795Z,15.50
2018-09-06T21:31:23.859Z,15.53
2018-09-06T21:33:53.890Z,15.57
2018-09-06T21:36:24.485Z,16.93
2018-09-06T21:38:55.001Z,16.20
2018-09-06T21:41:25.093Z,15.07
2018-09-06T21:43:55.958Z,15.30
2018-09-06T21:46:27.270Z,15.90
2018-09-06T21:48:58.550Z,17.27
2018-09-06T21:51:28.631Z,17.97
2018-09-06T21:53:59.559Z,16.27
2018-09-06T21:56:30.744Z,17.07
2018-09-06T21:59:01.769Z,16.80
2018-09-06T22:01:31.900Z,16.67
2018-09-06T22:04:09.236Z,17.63
2018-09-06T22:06:40.789Z,18.07
2018-09-06T22:09:12.988Z,18.97
2018-09-06T22:11:43.058Z,17.73
2018-09-06T22:14:13.762Z,18.57
2018-09-06T22:16:44.440Z,19.63
2018-09-06T22:19:14.871Z,20.00
2018-09-06T22:21:45.955Z,19.83
2018-09-06T22:24:16.022Z,19.93
2018-09-06T22:26:46.665Z,20.77
2018-09-06T22:29:20.770Z,20.43
2018-09-06T22:31:51.819Z,20.67
2018-09-06T22:34:22.770Z,19.73
2018-09-06T22:36:53.180Z,21.97
2018-09-06T22:39:23.906Z,22.23
2018-09-06T22:41:54.006Z,22.70
2018-09-06T22:44:24.430Z,23.43
2018-09-06T22:46:54.539Z,24.63
2018-09-06T22:49:25.160Z,24.20
2018-09-06T22:51:55.620Z,23.10
2018-09-06T22:54:26.057Z,24.73
2018-09-06T22:56:56.420Z,25.30
2018-09-06T22:59:26.808Z,24.50
2018-09-06T23:01:58.494Z,22.93
2018-09-06T23:04:29.150Z,22.40
2018-09-06T23:06:59.260Z,22.90
2018-09-06T23:09:29.539Z,21.30
2018-09-06T23:12:00.059Z,20.47
2018-09-06T23:14:30.660Z,18.57
2018-09-06T23:17:00.731Z,18.37
2018-09-06T23:19:30.885Z,19.63
2018-09-06T23:22:01.210Z,20.70
2018-09-06T23:24:32.358Z,20.63
2018-09-06T23:27:03.473Z,18.90
2018-09-06T23:29:33.576Z,20.60
2018-09-06T23:32:04.909Z,20.47
2018-09-06T23:34:36.702Z,20.07
2018-09-06T23:37:07.730Z,19.27
2018-09-06T23:39:38.697Z,20.50
2018-09-06T23:42:09.381Z,19.57
2018-09-06T23:44:39.432Z,20.37
2018-09-06T23:47:10.030Z,17.93
2018-09-06T23:49:40.050Z,16.73
2018-09-06T23:52:10.208Z,17.40
2018-09-06T23:54:40.882Z,17.10
2018-09-06T23:57:11.441Z,18.70
2018-09-06T23:59:41.500Z,18.53
